Terminal Aerodrome Forecast
Issued by NWS Sioux Falls, SD

Home | Current Version | Previous Version | Text Only | Print | Product List | Glossary On
Versions: 1 2 3 4 5 6 7 8 9 10 11 12 13 14 15 16
000
FTUS43 KFSD 221517 AAB
TAFFSD
TAF AMD
KFSD 221517Z 2215/2312 18005KT 1/2SM FG OVC003
     FM221700 19007KT 3SM BR BKN005
     FM221800 17010KT P6SM SCT009
     FM230500 18006KT P6SM BKN100=

USA.gov is the U.S. government's official web portal to all federal, state and local government web resources and services.